OEJN Airport Information

Runway Information
Runway 16C Length 10825 ft width 197 ft
Elevation 26 ft Threshold 0 ft Heading 160
Runway 34C Length 10825 ft Width 197 ft
Elevation 26 ft Threshold 0 ft Heading 340
Runway 16L Length 13123 ft width 148 ft
Elevation 30 ft Threshold 0 ft Heading 160
Runway 34R Length 13123 ft Width 148 ft
Elevation 48 ft Threshold 0 ft Heading 340
Runway 16R Length 12467 ft width 197 ft
Elevation 13 ft Threshold 0 ft Heading 160
Runway 34L Length 12467 ft Width 197 ft
Elevation 13 ft Threshold 0 ft Heading 340
Airport Frequencies
Type APP Name JEDDAH APP Frequency 119.1 MHZ
Type ATIS Name ATIS Frequency 126.2 MHZ
Type CLD Name JEDDAH CLN Frequency 121.8 MHZ
Type GND Name GND Frequency 121.6 MHZ
Type TWR Name JEDDAH TWR Frequency 118.2 MHZ
Airport Navaids
Type VORTAC Name King Abdulaziz Frequency 114900 KHZ
Airport Weather Information & NOTAM
ADDS - METARS form results

(2013 UTC 16 July 2018)
 
METAR text: OEJN 162000Z 35003KT CAVOK 34/17 Q1003 NOSIG
Conditions at: OEJN (JEDDAH/KING ABDU, SA) observed 2000 UTC 16 July 2018
Temperature: 34.0°C (93°F)
Dewpoint: 17.0°C (63°F) [RH = 36%]
Pressure (altimeter): 29.62 inches Hg (1003.0 mb)
Winds: from the N (350 degrees) at 3 MPH (3 knots; 1.6 m/s)
Visibility: 6 or more miles (10+ km)
Ceiling: ceiling and visibility are OK
Clouds: unknown
Weather: no significant weather observed at this time